Time;durP1;ratioP1;P1;durP2;ratioP2;P2;SDS_P1;SDS_P2;PMS_P1;PMS_P2;Temp;Humidity;BMP_temperature;BMP_pressure;BME280_temperature;BME280_humidity;BME280_pressure;Samples;Min_cycle;Max_cycle;Signal;HPM_P1;HPM_P2
2022/06/06 00:01:19;;;;;;;12.13;9.30;;;16.00;99.90;;;;;;4996883;28;20121;-80
2022/06/06 00:03:46;;;;;;;10.13;7.72;;;16.00;99.90;;;;;;4995600;28;20479;-79
2022/06/06 00:06:19;;;;;;;10.25;8.85;;;16.00;99.90;;;;;;4996799;28;20085;-80
2022/06/06 00:08:46;;;;;;;11.60;9.00;;;16.00;99.90;;;;;;4997509;28;20105;-80
2022/06/06 00:11:12;;;;;;;12.77;9.15;;;16.00;99.90;;;;;;4995434;28;20049;-81
2022/06/06 00:13:40;;;;;;;11.52;8.85;;;16.00;99.90;;;;;;4995381;28;20042;-81
2022/06/06 00:16:06;;;;;;;11.48;8.93;;;16.00;99.90;;;;;;4996467;28;20050;-79
2022/06/06 00:18:33;;;;;;;12.07;9.93;;;16.00;99.90;;;;;;4995543;28;20157;-80
2022/06/06 00:20:59;;;;;;;10.68;8.95;;;16.00;99.90;;;;;;4995241;28;20050;-81
2022/06/06 00:23:25;;;;;;;11.15;9.70;;;16.00;99.90;;;;;;4996406;28;20042;-81
2022/06/06 00:25:53;;;;;;;13.80;10.20;;;16.00;99.90;;;;;;4997136;28;20066;-74
2022/06/06 00:28:19;;;;;;;13.63;9.85;;;16.10;99.90;;;;;;4996268;28;20042;-81
2022/06/06 00:30:45;;;;;;;12.18;8.52;;;16.10;99.90;;;;;;4996273;28;20038;-80
2022/06/06 00:35:57;;;;;;;15.10;10.85;;;16.10;99.90;;;;;;4996299;28;20054;-80
2022/06/06 00:38:23;;;;;;;12.30;10.18;;;16.10;99.90;;;;;;4996192;28;20058;-81
2022/06/06 00:40:49;;;;;;;12.63;10.18;;;16.10;99.90;;;;;;4996085;28;20044;-82
2022/06/06 00:43:16;;;;;;;13.23;9.85;;;16.10;99.90;;;;;;4995982;28;20493;-84
2022/06/06 00:45:44;;;;;;;13.93;11.27;;;16.10;99.90;;;;;;4994034;28;20096;-83
2022/06/06 00:48:25;;;;;;;13.85;10.98;;;16.10;99.90;;;;;;4995893;28;20078;-83
2022/06/06 00:51:00;;;;;;;17.67;12.68;;;16.10;99.90;;;;;;4995868;28;20042;-88
2022/06/06 00:53:44;;;;;;;14.30;11.75;;;16.10;99.90;;;;;;4995952;28;20093;-86
2022/06/06 00:56:28;;;;;;;17.40;12.85;;;16.10;99.90;;;;;;4996328;28;20050;-80
2022/06/06 00:59:00;;;;;;;16.42;12.15;;;16.00;99.90;;;;;;4995066;28;20057;-87
2022/06/06 01:01:26;;;;;;;15.95;12.18;;;16.10;99.90;;;;;;4978809;28;20047;-90
2022/06/06 01:03:56;;;;;;;14.52;11.77;;;16.00;99.90;;;;;;4995113;28;20092;-84
2022/06/06 01:06:22;;;;;;;12.90;9.70;;;16.00;99.90;;;;;;4994492;28;20109;-88
2022/06/06 01:08:50;;;;;;;11.43;8.65;;;15.90;99.90;;;;;;4994348;28;20050;-88
2022/06/06 01:11:16;;;;;;;7.38;6.13;;;15.90;99.90;;;;;;4995511;28;20046;-88
2022/06/06 01:13:45;;;;;;;7.50;6.45;;;15.80;99.90;;;;;;4995552;28;20376;-91
2022/06/06 01:16:16;;;;;;;8.18;6.72;;;15.80;99.90;;;;;;4995464;28;20089;-86
2022/06/06 01:19:08;;;;;;;12.32;6.65;;;15.70;99.90;;;;;;4994310;28;20053;-91
2022/06/06 01:21:49;;;;;;;7.68;5.53;;;15.70;99.90;;;;;;4995425;28;20493;-91
2022/06/06 01:24:45;;;;;;;6.32;3.90;;;15.60;99.90;;;;;;4995782;28;20046;-89
2022/06/06 01:27:10;;;;;;;6.55;4.78;;;15.50;99.90;;;;;;4995360;28;20047;-91
2022/06/06 01:29:44;;;;;;;8.10;5.85;;;15.50;99.90;;;;;;4995423;28;20049;-89
2022/06/06 01:32:15;;;;;;;7.78;5.20;;;15.50;99.90;;;;;;4995804;28;20105;-89
2022/06/06 01:34:43;;;;;;;8.63;5.50;;;15.40;99.90;;;;;;4979100;28;20050;-91
2022/06/06 01:37:47;;;;;;;11.65;5.13;;;15.40;99.90;;;;;;4995258;28;20081;-92
2022/06/06 01:40:15;;;;;;;6.38;5.10;;;15.40;99.90;;;;;;4973666;28;20078;-92
2022/06/06 01:42:50;;;;;;;6.68;4.97;;;15.40;99.90;;;;;;4978574;28;20045;-86
2022/06/06 01:45:28;;;;;;;6.78;4.90;;;15.40;99.90;;;;;;5003220;28;20061;-92
2022/06/06 01:48:02;;;;;;;6.10;4.43;;;15.30;99.90;;;;;;5013276;28;20050;-91
2022/06/06 01:50:28;;;;;;;6.15;5.07;;;15.30;99.90;;;;;;5026340;28;20061;-86
2022/06/06 01:53:01;;;;;;;6.60;4.82;;;15.30;99.90;;;;;;5015984;28;20050;-91
2022/06/06 01:55:28;;;;;;;;;;;15.30;99.90;;;;;;5010336;28;20087;-87
2022/06/06 01:57:59;;;;;;;7.55;5.13;;;15.30;99.90;;;;;;5004371;28;19922;-85
2022/06/06 02:00:26;;;;;;;11.98;6.32;;;15.30;99.90;;;;;;5004881;28;20057;-87
2022/06/06 02:02:52;;;;;;;5.28;4.68;;;15.30;99.90;;;;;;5001749;28;20065;-92
2022/06/06 02:05:18;;;;;;;8.85;5.40;;;15.40;99.90;;;;;;4986108;28;20046;-87
2022/06/06 02:07:44;;;;;;;7.10;5.43;;;15.30;99.90;;;;;;5001040;28;20395;-88
2022/06/06 02:10:12;;;;;;;6.63;4.53;;;15.30;99.90;;;;;;4995574;28;20050;-83
2022/06/06 02:12:39;;;;;;;7.07;5.10;;;15.20;99.90;;;;;;4977961;28;20137;-88
2022/06/06 02:15:07;;;;;;;4.90;4.20;;;15.20;99.90;;;;;;4994668;28;20503;-88
2022/06/06 02:17:33;;;;;;;7.88;4.93;;;15.20;99.90;;;;;;4996715;28;20056;-90
2022/06/06 02:20:02;;;;;;;4.53;3.55;;;15.20;99.90;;;;;;4995517;28;20054;-86
2022/06/06 02:22:27;;;;;;;4.40;3.42;;;15.20;99.90;;;;;;4994596;28;20054;-81
2022/06/06 02:24:53;;;;;;;5.38;3.80;;;15.20;99.90;;;;;;4993763;28;20041;-86
2022/06/06 02:27:20;;;;;;;5.68;3.65;;;15.20;99.90;;;;;;4994244;28;20125;-78
2022/06/06 02:29:46;;;;;;;6.90;4.15;;;15.20;99.90;;;;;;4993026;28;20394;-78
2022/06/06 02:32:11;;;;;;;3.60;3.20;;;15.20;99.90;;;;;;4995043;28;20042;-78
2022/06/06 02:34:38;;;;;;;5.60;4.15;;;15.10;99.90;;;;;;4993258;28;20109;-75
2022/06/06 02:37:05;;;;;;;5.15;3.67;;;15.10;99.90;;;;;;4994175;28;20045;-83
2022/06/06 02:39:30;;;;;;;6.13;3.58;;;15.10;99.90;;;;;;4994136;28;20398;-80
2022/06/06 02:41:56;;;;;;;4.72;3.22;;;15.00;99.90;;;;;;4992960;28;20046;-80
2022/06/06 02:44:23;;;;;;;3.80;3.03;;;15.00;99.90;;;;;;4994075;28;20050;-74
2022/06/06 02:46:49;;;;;;;6.57;3.35;;;15.10;99.90;;;;;;4993952;28;20058;-80
2022/06/06 02:49:15;;;;;;;4.63;3.00;;;14.90;99.90;;;;;;4994067;28;20054;-79
2022/06/06 02:51:42;;;;;;;4.35;3.30;;;15.00;99.90;;;;;;4993963;28;20054;-75
2022/06/06 02:54:08;;;;;;;4.03;2.90;;;15.00;99.90;;;;;;4994018;28;20081;-79
2022/06/06 02:56:34;;;;;;;4.85;3.67;;;14.90;99.90;;;;;;4994067;28;20069;-79
2022/06/06 02:59:04;;;;;;;6.95;3.40;;;14.80;99.90;;;;;;4993938;28;20491;-79
2022/06/06 03:01:30;;;;;;;5.68;3.78;;;14.80;99.90;;;;;;4993996;28;20129;-76
2022/06/06 03:03:56;;;;;;;6.10;3.65;;;14.80;99.90;;;;;;4992840;28;20065;-79
2022/06/06 03:06:27;;;;;;;5.05;3.97;;;14.80;99.90;;;;;;4993904;28;20491;-76
2022/06/06 03:08:52;;;;;;;5.10;3.75;;;14.70;99.90;;;;;;4993204;28;20050;-76
2022/06/06 03:11:30;;;;;;;5.82;3.55;;;14.80;99.90;;;;;;4997950;28;20069;-75
2022/06/06 03:14:14;;;;;;;3.75;3.00;;;14.80;99.90;;;;;;4996430;28;20105;-78
2022/06/06 03:23:17;;;;;;;2.65;2.38;;;14.70;99.90;;;;;;4997534;28;20061;-77
2022/06/06 03:26:12;;;;;;;4.60;2.65;;;14.60;99.90;;;;;;4997508;28;20053;-75
2022/06/06 03:28:53;;;;;;;3.75;2.70;;;14.60;99.90;;;;;;4986509;28;20050;-76
2022/06/06 03:31:33;;;;;;;5.72;3.40;;;14.50;99.90;;;;;;4997246;28;20050;-75
2022/06/06 03:34:22;;;;;;;4.38;3.45;;;14.50;99.90;;;;;;4996679;28;20050;-76
2022/06/06 03:37:16;;;;;;;5.10;3.17;;;14.50;99.90;;;;;;4997542;28;20074;-77
2022/06/06 03:39:47;;;;;;;3.70;2.83;;;14.50;99.90;;;;;;4997726;28;20129;-83
2022/06/06 03:42:37;;;;;;;3.28;2.80;;;14.50;99.90;;;;;;4997924;28;20045;-81
2022/06/06 03:45:21;;;;;;;4.18;3.17;;;14.40;99.90;;;;;;4997085;28;20119;-81
2022/06/06 03:48:02;;;;;;;4.10;3.03;;;14.50;99.90;;;;;;4996599;28;20054;-82
2022/06/06 03:50:45;;;;;;;3.95;2.58;;;14.40;99.90;;;;;;4997652;28;20051;-81
2022/06/06 03:53:15;;;;;;;5.95;3.08;;;14.40;99.90;;;;;;4996896;28;20379;-82
2022/06/06 03:56:14;;;;;;;5.18;3.33;;;14.40;99.90;;;;;;4996883;28;20054;-81
2022/06/06 03:58:40;;;;;;;4.15;2.97;;;14.30;99.90;;;;;;4995728;28;20050;-79
2022/06/06 04:01:13;;;;;;;4.20;2.80;;;14.30;99.90;;;;;;4995597;28;20042;-81
2022/06/06 04:03:40;;;;;;;4.25;2.63;;;14.30;99.90;;;;;;4996947;28;20125;-80
2022/06/06 04:06:06;;;;;;;4.10;2.42;;;14.40;99.90;;;;;;4995608;28;20196;-82
2022/06/06 04:08:32;;;;;;;3.63;2.60;;;14.40;99.90;;;;;;4996675;28;20058;-81
2022/06/06 04:11:13;;;;;;;3.40;2.40;;;14.30;99.90;;;;;;4995145;28;20558;-80
2022/06/06 04:14:04;;;;;;;3.55;2.67;;;14.30;99.90;;;;;;4995398;28;20050;-80
2022/06/06 04:16:53;;;;;;;3.42;2.30;;;14.40;99.90;;;;;;4996578;28;20058;-80
2022/06/06 04:19:19;;;;;;;2.45;2.10;;;14.40;99.90;;;;;;4979400;28;20446;-79
2022/06/06 04:22:04;;;;;;;3.70;2.22;;;14.40;99.90;;;;;;4995237;28;20089;-80
2022/06/06 04:24:59;;;;;;;5.28;1.90;;;14.40;99.90;;;;;;4995366;28;20054;-80
2022/06/06 04:27:43;;;;;;;1.98;1.52;;;14.40;99.90;;;;;;4996319;28;20055;-78
2022/06/06 04:30:21;;;;;;;1.60;1.33;;;14.40;99.90;;;;;;4995334;28;20053;-81
2022/06/06 04:33:03;;;;;;;1.30;1.10;;;14.40;99.90;;;;;;4996318;28;20059;-80
2022/06/06 04:35:37;;;;;;;2.85;1.80;;;14.40;99.90;;;;;;4996625;28;20442;-83
2022/06/06 04:38:05;;;;;;;3.05;1.90;;;14.40;99.90;;;;;;4996492;28;20120;-82
2022/06/06 04:40:54;;;;;;;2.90;2.22;;;14.30;99.90;;;;;;4994983;28;20380;-83
2022/06/06 04:43:33;;;;;;;5.43;3.65;;;14.40;99.90;;;;;;4994924;28;20409;-82
2022/06/06 04:46:04;;;;;;;6.00;3.70;;;14.40;99.90;;;;;;4979794;28;20542;-82
2022/06/06 04:48:32;;;;;;;7.13;4.60;;;14.40;99.90;;;;;;4994502;28;20061;-77
2022/06/06 04:50:59;;;;;;;6.22;3.45;;;14.40;99.90;;;;;;4995589;28;20573;-82
2022/06/06 04:53:26;;;;;;;8.20;3.80;;;14.40;99.90;;;;;;4995862;28;20390;-83
2022/06/06 04:55:55;;;;;;;8.32;4.45;;;14.40;99.90;;;;;;4995773;28;20125;-82
2022/06/06 04:58:21;;;;;;;6.20;3.85;;;14.30;99.90;;;;;;4995006;28;20092;-82
2022/06/06 05:00:47;;;;;;;5.65;3.55;;;14.30;99.90;;;;;;4994758;28;20050;-81
2022/06/06 05:03:13;;;;;;;6.20;2.55;;;14.30;99.90;;;;;;4994766;28;20472;-83
2022/06/06 05:05:55;;;;;;;5.45;2.78;;;14.30;99.90;;;;;;4995674;28;20118;-79
2022/06/06 05:08:35;;;;;;;6.88;3.08;;;14.30;99.90;;;;;;4996805;28;20058;-82
2022/06/06 05:11:06;;;;;;;5.30;2.92;;;14.20;99.90;;;;;;4995563;28;20399;-81
2022/06/06 05:13:38;;;;;;;6.80;3.35;;;14.30;99.90;;;;;;4995438;28;20052;-83
2022/06/06 05:16:19;;;;;;;8.60;3.67;;;14.20;99.90;;;;;;4995702;28;20042;-84
2022/06/06 05:19:16;;;;;;;5.55;3.17;;;14.20;99.90;;;;;;4995351;28;20111;-78
2022/06/06 05:22:00;;;;;;;6.95;3.53;;;14.30;99.90;;;;;;4995303;28;20616;-80
2022/06/06 05:24:29;;;;;;;4.47;2.80;;;14.20;99.90;;;;;;4995859;28;20491;-81
2022/06/06 05:27:25;;;;;;;5.00;2.83;;;14.20;99.90;;;;;;4995362;28;20152;-80
2022/06/06 05:29:59;;;;;;;6.20;3.50;;;14.30;99.90;;;;;;4994761;28;20050;-78
2022/06/06 05:32:29;;;;;;;5.90;3.22;;;14.20;99.90;;;;;;4995265;28;20046;-80
2022/06/06 05:35:22;;;;;;;7.93;3.50;;;14.10;99.90;;;;;;4995089;28;20054;-82
2022/06/06 05:37:57;;;;;;;4.90;3.38;;;14.10;99.90;;;;;;4994415;28;20042;-81
2022/06/06 05:40:36;;;;;;;7.00;4.20;;;14.20;99.90;;;;;;4995014;28;20089;-77
2022/06/06 05:43:24;;;;;;;8.68;4.70;;;14.10;99.90;;;;;;4994279;28;20046;-79
2022/06/06 05:46:04;;;;;;;11.40;5.55;;;14.40;99.90;;;;;;4995232;28;20085;-77
2022/06/06 05:48:49;;;;;;;8.50;5.18;;;14.00;99.90;;;;;;4994979;28;20054;-79
2022/06/06 05:51:33;;;;;;;11.02;6.47;;;14.10;99.90;;;;;;4977667;28;20097;-78
2022/06/06 05:54:07;;;;;;;13.85;7.15;;;14.10;99.90;;;;;;4977904;28;20056;-79
2022/06/06 05:56:56;;;;;;;12.85;7.75;;;14.10;99.90;;;;;;4995417;28;20047;-80
2022/06/06 05:59:45;;;;;;;13.45;8.13;;;14.10;99.90;;;;;;4994685;28;20053;-79
2022/06/06 06:02:28;;;;;;;15.80;8.40;;;14.10;99.90;;;;;;4994590;28;20090;-75
2022/06/06 06:05:25;;;;;;;14.75;8.85;;;14.10;99.90;;;;;;4993934;28;20470;-78
2022/06/06 06:08:24;;;;;;;18.20;9.98;;;14.10;99.90;;;;;;4994537;28;20102;-78
2022/06/06 06:11:17;;;;;;;17.88;9.75;;;14.20;99.90;;;;;;4993561;28;20391;-79
2022/06/06 06:14:10;;;;;;;17.70;11.10;;;14.10;99.90;;;;;;4994097;28;20486;-78
2022/06/06 06:16:41;;;;;;;19.67;11.93;;;14.10;99.90;;;;;;4995214;28;20375;-77
2022/06/06 06:19:16;;;;;;;22.20;12.63;;;14.10;99.90;;;;;;4994485;28;20042;-78
2022/06/06 06:21:46;;;;;;;20.63;12.82;;;14.10;99.90;;;;;;4993701;28;20053;-75
2022/06/06 06:24:18;;;;;;;18.52;12.07;;;14.00;99.90;;;;;;4977148;28;20050;-76
2022/06/06 06:26:45;;;;;;;18.98;11.85;;;14.10;99.90;;;;;;4995030;28;20042;-77
2022/06/06 06:29:11;;;;;;;19.80;12.02;;;14.20;99.90;;;;;;4994322;28;20046;-77
2022/06/06 06:32:01;;;;;;;20.92;12.57;;;14.00;99.90;;;;;;4994202;28;20497;-80
2022/06/06 06:34:33;;;;;;;19.90;11.98;;;14.00;99.90;;;;;;4994259;28;20046;-80
2022/06/06 06:37:17;;;;;;;17.27;10.23;;;14.00;99.90;;;;;;4994107;28;20104;-76
2022/06/06 06:40:06;;;;;;;17.17;10.30;;;14.00;99.90;;;;;;4993248;28;20054;-76
2022/06/06 06:42:59;;;;;;;18.52;9.70;;;14.00;99.90;;;;;;4990990;28;20050;-78
2022/06/06 06:45:29;;;;;;;;;;;13.90;99.90;;;;;;4997384;28;20077;-77
2022/06/06 06:47:59;;;;;;;14.20;8.13;;;13.90;99.90;;;;;;4998076;28;20327;-74
2022/06/06 06:50:36;;;;;;;12.85;7.40;;;13.90;99.90;;;;;;4998324;28;20452;-79
2022/06/06 06:53:11;;;;;;;13.13;7.50;;;14.00;99.90;;;;;;4998001;28;20353;-79
2022/06/06 06:56:13;;;;;;;12.25;7.32;;;14.00;99.90;;;;;;4997690;28;20558;-75
2022/06/06 06:58:47;;;;;;;13.68;7.68;;;14.00;99.90;;;;;;4996985;28;20479;-78
2022/06/06 07:01:39;;;;;;;13.38;7.78;;;14.00;99.90;;;;;;4998579;28;20401;-76
2022/06/06 07:10:35;;;;;;;12.63;6.68;;;14.10;99.90;;;;;;4997757;28;20486;-77
2022/06/06 07:13:11;;;;;;;11.10;6.68;;;14.20;99.90;;;;;;4996595;28;20055;-78
2022/06/06 07:15:54;;;;;;;13.15;6.45;;;14.10;99.90;;;;;;4997791;28;20042;-83
2022/06/06 07:18:21;;;;;;;;;;;14.10;99.90;;;;;;4997415;28;20050;-80
2022/06/06 07:20:50;;;;;;;8.93;6.07;;;14.20;99.90;;;;;;4997688;28;19937;-79
2022/06/06 07:23:16;;;;;;;12.73;7.07;;;14.20;99.90;;;;;;4996633;28;20180;-80
2022/06/06 07:25:44;;;;;;;12.95;6.45;;;14.20;99.90;;;;;;4997815;28;20046;-79
2022/06/06 07:28:13;;;;;;;8.07;5.80;;;14.30;99.90;;;;;;4997530;28;20461;-79
2022/06/06 07:30:47;;;;;;;10.98;6.07;;;14.40;99.90;;;;;;4997441;28;20041;-78
2022/06/06 07:33:28;;;;;;;8.65;5.22;;;14.50;99.90;;;;;;4998336;28;20097;-81
2022/06/06 07:36:27;;;;;;;7.38;4.93;;;14.70;99.90;;;;;;4997459;28;20034;-79
2022/06/06 07:39:05;;;;;;;9.15;5.22;;;14.80;99.90;;;;;;4997568;28;20050;-75
2022/06/06 07:42:15;;;;;;;8.25;4.28;;;14.90;99.90;;;;;;4997264;28;20050;-76
2022/06/06 07:45:03;;;;;;;6.40;4.60;;;15.00;99.90;;;;;;4980829;28;20046;-75
2022/06/06 07:47:31;;;;;;;6.07;3.22;;;15.10;99.90;;;;;;4996061;28;20050;-75
2022/06/06 07:50:11;;;;;;;5.97;2.90;;;15.20;99.90;;;;;;4997033;28;20062;-75
2022/06/06 07:52:45;;;;;;;4.65;2.55;;;15.30;99.90;;;;;;4997149;28;20038;-73
2022/06/06 07:55:13;;;;;;;7.30;2.80;;;15.40;99.90;;;;;;4996704;28;20407;-75
2022/06/06 07:58:21;;;;;;;5.00;2.40;;;15.50;99.90;;;;;;4996929;28;20133;-74
2022/06/06 08:01:02;;;;;;;4.65;2.58;;;15.60;99.90;;;;;;4991878;28;20109;-75
2022/06/06 08:03:50;;;;;;;5.05;2.10;;;15.60;99.90;;;;;;4996973;28;20128;-77
2022/06/06 08:06:33;;;;;;;2.35;1.55;;;15.70;99.90;;;;;;4996210;28;20097;-82
2022/06/06 08:09:07;;;;;;;3.30;1.40;;;15.70;99.90;;;;;;4996894;28;20050;-75
2022/06/06 08:11:45;;;;;;;5.05;1.50;;;15.70;99.90;;;;;;4996789;28;20054;-83
2022/06/06 08:14:17;;;;;;;3.00;1.65;;;15.60;99.90;;;;;;4997564;28;20073;-80
2022/06/06 08:17:10;;;;;;;2.63;1.33;;;15.70;99.90;;;;;;4996771;28;20091;-83
2022/06/06 08:20:05;;;;;;;4.50;1.50;;;15.80;99.90;;;;;;4996625;28;20096;-77
2022/06/06 08:22:34;;;;;;;2.90;1.20;;;15.90;99.90;;;;;;4997204;28;20105;-81
2022/06/06 08:25:03;;;;;;;2.80;1.55;;;15.90;99.90;;;;;;4996574;28;20049;-77
2022/06/06 08:27:31;;;;;;;3.17;1.65;;;15.90;99.90;;;;;;4995594;28;20114;-79
2022/06/06 08:29:58;;;;;;;4.13;1.58;;;15.90;99.90;;;;;;4995178;28;20046;-79
2022/06/06 08:32:25;;;;;;;3.40;1.60;;;15.90;99.90;;;;;;4995679;28;20046;-75
2022/06/06 08:34:51;;;;;;;2.60;1.50;;;16.00;99.90;;;;;;4995387;28;20058;-81
2022/06/06 08:37:41;;;;;;;3.55;1.65;;;16.00;99.90;;;;;;4995971;28;20391;-78
2022/06/06 08:40:53;;;;;;;4.93;2.03;;;16.10;99.90;;;;;;4994646;28;20533;-74
2022/06/06 08:43:39;;;;;;;3.50;2.10;;;16.20;99.90;;;;;;4996704;28;20105;-74
2022/06/06 08:46:18;;;;;;;4.20;2.45;;;16.20;99.90;;;;;;4995688;28;20378;-75
2022/06/06 08:50:44;;;;;;;4.60;2.83;;;16.20;99.90;;;;;;4996949;28;20090;-75
2022/06/06 08:52:25;;;;;;;4.85;2.67;;;16.10;99.90;;;;;;4996705;28;20065;-76
2022/06/06 08:55:25;;;;;;;5.55;2.90;;;16.00;99.90;;;;;;4995149;28;20061;-78
2022/06/06 08:58:06;;;;;;;8.32;3.88;;;15.90;99.90;;;;;;4996019;28;20141;-75
2022/06/06 09:00:56;;;;;;;8.00;4.55;;;15.90;99.90;;;;;;4996020;28;20042;-75
2022/06/06 09:03:43;;;;;;;9.40;5.05;;;15.90;99.90;;;;;;4996567;28;20050;-78
2022/06/06 09:06:45;;;;;;;10.02;5.78;;;15.80;99.90;;;;;;4995666;28;20046;-77
2022/06/06 09:09:25;;;;;;;8.38;5.40;;;15.80;99.90;;;;;;4995605;28;20090;-77
2022/06/06 09:12:10;;;;;;;10.20;6.20;;;15.90;99.90;;;;;;4996132;28;20407;-81
2022/06/06 09:14:35;;;;;;;8.15;4.78;;;16.00;99.90;;;;;;4995533;28;20046;-78
2022/06/06 09:17:38;;;;;;;11.35;5.60;;;16.10;99.90;;;;;;4995502;28;20060;-81
2022/06/06 09:20:22;;;;;;;7.93;4.70;;;16.20;99.90;;;;;;4995416;28;20046;-76
2022/06/06 09:23:00;;;;;;;6.53;2.92;;;16.30;99.90;;;;;;4996187;28;20387;-77
2022/06/06 09:25:38;;;;;;;5.50;2.22;;;16.40;99.90;;;;;;4994551;28;20136;-80
2022/06/06 09:28:22;;;;;;;3.80;1.65;;;16.50;99.90;;;;;;4995850;28;20058;-80
2022/06/06 09:30:51;;;;;;;4.90;1.80;;;16.60;99.90;;;;;;4977867;28;20491;-81
2022/06/06 09:33:50;;;;;;;4.68;1.52;;;16.70;99.90;;;;;;4996038;28;20046;-78
2022/06/06 09:36:24;;;;;;;3.47;1.40;;;16.70;99.90;;;;;;4994710;28;20125;-82
2022/06/06 09:39:32;;;;;;;6.57;1.95;;;16.80;99.90;;;;;;4996861;28;20050;-78
2022/06/06 09:42:37;;;;;;;3.25;1.58;;;16.90;99.90;;;;;;4997148;28;20446;-84
2022/06/06 09:45:26;;;;;;;5.28;1.67;;;17.00;99.90;;;;;;4995079;28;20068;-73
2022/06/06 09:48:22;;;;;;;3.00;1.40;;;17.10;99.90;;;;;;4994189;28;20061;-81
2022/06/06 09:51:25;;;;;;;3.67;1.10;;;17.20;99.90;;;;;;4996067;28;20051;-81
2022/06/06 10:00:23;;;;;;;;;;;17.20;99.90;;;;;;4995834;28;20096;-87
2022/06/06 10:02:58;;;;;;;2.15;1.45;;;17.20;99.90;;;;;;4993452;28;19928;-80
2022/06/06 10:05:32;;;;;;;2.28;1.20;;;17.20;99.90;;;;;;4994631;28;20081;-79
2022/06/06 10:08:45;;;;;;;2.58;0.95;;;17.20;99.90;;;;;;4995303;28;20133;-80
2022/06/06 10:11:32;;;;;;;2.70;0.90;;;17.20;99.90;;;;;;4972841;28;20133;-76
2022/06/06 10:14:16;;;;;;;1.98;0.70;;;17.10;99.90;;;;;;4994919;28;20057;-79
2022/06/06 10:16:51;;;;;;;3.15;1.38;;;17.00;99.90;;;;;;4993999;28;20046;-79
2022/06/06 10:19:28;;;;;;;2.25;1.00;;;16.90;99.90;;;;;;4993569;28;20058;-78
2022/06/06 10:22:23;;;;;;;5.07;1.65;;;16.80;99.90;;;;;;4994581;28;20082;-76
2022/06/06 10:24:48;;;;;;;7.70;3.60;;;16.70;99.90;;;;;;4995016;28;20089;-74
2022/06/06 10:27:38;;;;;;;4.30;3.55;;;16.70;99.90;;;;;;4994339;28;20089;-75
2022/06/06 10:30:13;;;;;;;5.97;3.50;;;16.60;99.90;;;;;;4994037;28;20568;-76
2022/06/06 10:32:57;;;;;;;3.90;2.90;;;16.50;99.90;;;;;;4997455;28;20052;-77
2022/06/06 10:35:39;;;;;;;2.40;1.50;;;16.60;99.90;;;;;;4993773;28;20508;-71
2022/06/06 10:38:29;;;;;;;1.92;1.65;;;16.80;99.90;;;;;;4993940;28;20108;-74
2022/06/06 10:41:23;;;;;;;2.20;1.00;;;17.00;99.90;;;;;;4993073;28;20042;-76
2022/06/06 10:44:13;;;;;;;3.22;0.90;;;17.20;99.90;;;;;;4994246;28;20050;-79
2022/06/06 10:46:57;;;;;;;1.58;0.95;;;17.40;99.90;;;;;;4994006;28;20055;-78
2022/06/06 10:49:23;;;;;;;2.15;1.00;;;17.60;99.90;;;;;;4992936;28;20088;-73
2022/06/06 10:52:04;;;;;;;1.58;0.73;;;17.70;99.90;;;;;;4993225;28;20078;-77
2022/06/06 10:55:08;;;;;;;1.52;1.02;;;17.80;99.90;;;;;;4993271;28;20046;-80
2022/06/06 10:57:53;;;;;;;2.88;1.10;;;17.80;99.90;;;;;;4992471;28;20060;-78
2022/06/06 11:00:22;;;;;;;2.60;0.73;;;17.80;99.90;;;;;;4992951;28;20046;-80
2022/06/06 11:03:18;;;;;;;0.60;0.40;;;17.70;99.90;;;;;;4994097;28;20053;-76
2022/06/06 11:05:59;;;;;;;1.02;0.65;;;17.60;99.90;;;;;;4994088;28;20043;-79
2022/06/06 11:09:35;;;;;;;1.70;0.73;;;17.50;99.90;;;;;;4994629;28;20050;-72
2022/06/06 11:12:18;;;;;;;2.85;1.10;;;17.50;99.90;;;;;;4952902;29;20097;-77
2022/06/06 11:14:44;;;;;;;1.20;0.80;;;17.50;99.90;;;;;;4953008;29;20051;-74
2022/06/06 11:17:16;;;;;;;1.27;0.80;;;17.60;99.90;;;;;;4976862;28;20100;-79
2022/06/06 11:20:09;;;;;;;1.85;0.80;;;17.80;99.90;;;;;;4993877;28;20514;-82
2022/06/06 11:22:45;;;;;;;2.60;1.10;;;17.90;99.90;;;;;;4993897;28;20113;-73
2022/06/06 11:25:15;;;;;;;2.38;1.10;;;17.90;99.90;;;;;;4976748;28;20124;-75
2022/06/06 11:27:59;;;;;;;2.60;1.40;;;17.90;99.90;;;;;;4992696;28;20057;-76
2022/06/06 11:30:28;;;;;;;2.35;1.20;;;17.90;99.90;;;;;;4994595;28;20345;-76
2022/06/06 11:33:31;;;;;;;4.00;1.10;;;18.00;99.90;;;;;;4998273;28;20053;-74
2022/06/06 11:35:59;;;;;;;3.63;1.00;;;18.00;99.90;;;;;;4996816;28;20133;-74
2022/06/06 11:38:34;;;;;;;3.75;1.20;;;18.00;99.90;;;;;;4997579;28;20046;-72
2022/06/06 11:41:27;;;;;;;3.28;1.00;;;18.00;99.90;;;;;;4997056;28;20528;-75
2022/06/06 11:44:11;;;;;;;;;;;17.90;99.90;;;;;;4997998;28;20112;-77
2022/06/06 11:46:56;;;;;;;1.65;0.75;;;17.90;99.90;;;;;;4997397;28;20289;-77
2022/06/06 11:49:51;;;;;;;1.95;1.08;;;18.00;99.90;;;;;;4998003;28;20503;-83
2022/06/06 11:53:02;;;;;;;2.78;0.82;;;17.90;99.90;;;;;;4987043;28;20414;-80
2022/06/06 11:55:57;;;;;;;2.00;0.90;;;17.90;99.90;;;;;;4996948;28;20046;-74
2022/06/06 11:58:44;;;;;;;2.45;0.80;;;18.00;99.90;;;;;;4997244;28;20483;-76
2022/06/06 12:01:27;;;;;;;0.80;0.70;;;17.70;99.90;;;;;;4996713;28;20129;-77
2022/06/06 12:03:56;;;;;;;2.28;0.88;;;18.10;99.90;;;;;;4997037;28;20042;-75
2022/06/06 12:06:40;;;;;;;2.60;1.20;;;18.00;99.90;;;;;;4995926;28;20050;-73
2022/06/06 12:09:39;;;;;;;4.20;1.33;;;17.90;99.90;;;;;;4997339;28;20120;-78
2022/06/06 12:12:26;;;;;;;1.10;0.90;;;17.90;99.90;;;;;;4979336;28;20410;-77
2022/06/06 12:15:09;;;;;;;1.73;0.90;;;17.90;99.90;;;;;;4996777;28;20054;-75
2022/06/06 12:17:44;;;;;;;1.20;0.80;;;18.00;99.90;;;;;;4996366;28;20491;-79
2022/06/06 12:20:13;;;;;;;2.47;0.80;;;18.00;99.90;;;;;;4995813;28;20118;-76
2022/06/06 12:22:47;;;;;;;2.30;0.77;;;18.10;99.90;;;;;;4997079;28;20104;-75
2022/06/06 12:25:28;;;;;;;0.90;0.73;;;18.10;99.90;;;;;;4997150;28;20058;-76
2022/06/06 12:28:35;;;;;;;1.48;0.65;;;18.10;99.90;;;;;;4996679;28;20542;-77
2022/06/06 12:31:19;;;;;;;1.00;0.60;;;18.20;99.90;;;;;;4997030;28;20054;-77
2022/06/06 12:33:58;;;;;;;1.38;1.05;;;18.30;99.90;;;;;;4996280;28;20104;-76
2022/06/06 12:36:45;;;;;;;2.58;0.70;;;18.40;99.90;;;;;;4996366;28;20100;-76
2022/06/06 12:39:33;;;;;;;1.88;0.70;;;18.50;99.90;;;;;;4996319;28;20089;-75
2022/06/06 12:42:09;;;;;;;1.95;0.60;;;18.40;99.90;;;;;;4995218;28;20078;-76
2022/06/06 12:44:40;;;;;;;1.67;0.88;;;18.40;99.90;;;;;;4996178;28;20046;-75
2022/06/06 12:47:40;;;;;;;2.00;0.80;;;18.30;99.90;;;;;;4996213;28;20102;-76
2022/06/06 12:50:19;;;;;;;1.13;0.68;;;18.30;99.90;;;;;;4995993;28;20077;-79
2022/06/06 12:53:00;;;;;;;1.00;0.60;;;18.30;99.90;;;;;;4995996;28;20058;-76
2022/06/06 12:56:17;;;;;;;1.63;0.60;;;18.30;99.90;;;;;;4996170;28;20042;-77
2022/06/06 12:58:45;;;;;;;1.80;0.60;;;18.30;99.90;;;;;;4995413;28;20057;-76
2022/06/06 13:01:37;;;;;;;1.30;0.50;;;18.30;99.90;;;;;;4995868;28;20051;-76
2022/06/06 13:04:21;;;;;;;1.75;0.50;;;18.40;99.90;;;;;;4995851;28;20097;-78
2022/06/06 13:07:25;;;;;;;1.50;0.50;;;18.40;99.90;;;;;;4996302;28;20046;-75
2022/06/06 13:10:00;;;;;;;0.82;0.30;;;18.50;99.90;;;;;;4987350;28;20069;-79
2022/06/06 13:12:54;;;;;;;0.40;0.30;;;18.40;99.90;;;;;;4995682;28;20553;-74
2022/06/06 13:15:48;;;;;;;2.00;0.35;;;18.40;99.90;;;;;;4995652;28;20133;-75
2022/06/06 13:18:24;;;;;;;3.22;0.40;;;18.30;99.90;;;;;;4996381;28;20046;-79
2022/06/06 13:21:15;;;;;;;2.97;0.40;;;18.20;99.90;;;;;;4995411;28;20058;-82
2022/06/06 13:24:11;;;;;;;2.80;0.60;;;18.20;99.90;;;;;;4995574;28;20402;-81
2022/06/06 13:26:53;;;;;;;1.38;0.60;;;18.10;99.90;;;;;;4979094;28;20093;-80
2022/06/06 13:29:34;;;;;;;1.73;0.60;;;18.00;99.90;;;;;;4994166;28;20042;-82
2022/06/06 13:32:32;;;;;;;1.40;0.50;;;18.00;99.90;;;;;;4995212;28;20185;-81
2022/06/06 13:35:22;;;;;;;2.63;0.73;;;17.90;99.90;;;;;;4992783;28;20137;-80
2022/06/06 13:38:13;;;;;;;0.93;0.70;;;17.80;99.90;;;;;;4995142;28;20104;-80
2022/06/06 13:40:44;;;;;;;1.55;0.70;;;17.70;99.90;;;;;;4995476;28;20100;-79
2022/06/06 13:43:29;;;;;;;1.95;0.80;;;17.60;99.90;;;;;;4995967;28;20050;-74
2022/06/06 13:46:38;;;;;;;0.82;0.70;;;17.60;99.90;;;;;;4989740;28;20100;-77
2022/06/06 13:49:22;;;;;;;1.45;0.90;;;17.70;99.90;;;;;;4994995;28;20057;-82
2022/06/06 13:52:21;;;;;;;1.48;0.77;;;17.60;99.90;;;;;;4994875;28;20046;-79
2022/06/06 13:54:47;;;;;;;1.10;0.60;;;17.70;99.90;;;;;;4994657;28;20046;-76
2022/06/06 13:57:28;;;;;;;0.57;0.57;;;17.70;99.90;;;;;;4993572;28;20371;-75
2022/06/06 14:00:18;;;;;;;1.20;0.60;;;17.70;99.90;;;;;;4995308;28;20050;-77
2022/06/06 14:02:52;;;;;;;1.38;0.60;;;17.60;99.90;;;;;;4994801;28;20053;-81
2022/06/06 14:05:43;;;;;;;1.33;0.57;;;17.60;99.90;;;;;;4994802;28;20053;-76
2022/06/06 14:08:18;;;;;;;1.95;0.60;;;17.60;99.90;;;;;;4994626;28;20050;-82
2022/06/06 14:11:11;;;;;;;1.33;0.70;;;17.60;99.90;;;;;;4994660;28;20133;-79